Time;durP1;ratioP1;P1;durP2;ratioP2;P2;SDS_P1;SDS_P2;PMS_P1;PMS_P2;Temp;Humidity;BMP_temperature;BMP_pressure;BME280_temperature;BME280_humidity;BME280_pressure;Samples;Min_cycle;Max_cycle;Signal;HPM_P1;HPM_P2
2022/12/19 00:01:51;;;;;;;6.35;4.88;;;20.80;36.80;;;;;;6117463;23;20098;-65
2022/12/19 00:04:18;;;;;;;5.18;4.68;;;20.80;36.80;;;;;;6117890;23;20053;-65
2022/12/19 00:06:44;;;;;;;4.82;4.43;;;20.80;36.80;;;;;;6091352;23;20504;-64
2022/12/19 00:09:11;;;;;;;5.32;4.53;;;20.70;36.80;;;;;;6092620;23;20629;-65
2022/12/19 00:11:38;;;;;;;5.03;4.55;;;20.70;36.70;;;;;;6092600;23;20069;-64
2022/12/19 00:14:04;;;;;;;4.53;4.13;;;20.70;36.70;;;;;;6091446;23;20394;-64
2022/12/19 00:16:30;;;;;;;4.25;3.85;;;20.60;36.70;;;;;;6090797;23;20021;-64
2022/12/19 00:18:58;;;;;;;5.35;4.28;;;20.60;36.70;;;;;;6092454;23;20077;-65
2022/12/19 00:21:26;;;;;;;4.95;4.38;;;20.60;36.80;;;;;;6117899;23;20435;-65
2022/12/19 00:23:52;;;;;;;4.95;4.28;;;20.60;36.70;;;;;;6091901;23;20106;-64
2022/12/19 00:26:24;;;;;;;4.97;4.50;;;20.60;36.60;;;;;;6092256;23;20014;-66
2022/12/19 00:28:52;;;;;;;4.90;4.43;;;20.50;36.60;;;;;;6118069;23;20020;-64
2022/12/19 00:31:20;;;;;;;4.90;4.43;;;20.50;36.60;;;;;;6092248;23;20097;-65
2022/12/19 00:33:47;;;;;;;5.22;4.78;;;20.50;36.60;;;;;;6091593;23;20542;-65
2022/12/19 00:36:18;;;;;;;4.70;4.30;;;20.50;36.60;;;;;;6091819;23;20462;-64
2022/12/19 00:38:45;;;;;;;;;;;20.50;36.60;;;;;;6118074;23;20021;-65
2022/12/19 00:41:16;;;;;;;4.97;4.40;;;20.50;36.40;;;;;;6117710;23;19921;-64
2022/12/19 00:43:43;;;;;;;4.90;4.32;;;20.40;36.60;;;;;;6118588;23;20022;-64
2022/12/19 00:46:11;;;;;;;5.20;4.70;;;20.40;36.60;;;;;;6092013;23;20014;-64
2022/12/19 00:48:37;;;;;;;5.95;4.90;;;20.40;36.60;;;;;;6091374;23;20055;-64
2022/12/19 00:51:05;;;;;;;5.10;4.32;;;20.40;36.50;;;;;;6117444;23;20032;-64
2022/12/19 00:53:31;;;;;;;5.07;4.57;;;20.40;36.50;;;;;;6118250;23;20014;-64
2022/12/19 00:56:01;;;;;;;4.72;4.20;;;20.40;36.30;;;;;;6091602;23;20032;-65
2022/12/19 00:58:27;;;;;;;4.32;3.92;;;20.40;36.30;;;;;;6093103;23;20125;-64
2022/12/19 01:00:53;;;;;;;4.95;4.38;;;20.40;36.30;;;;;;6117907;23;20064;-65
2022/12/19 01:03:18;;;;;;;5.00;4.50;;;20.40;36.30;;;;;;6118765;23;20014;-65
2022/12/19 01:05:44;;;;;;;5.22;4.72;;;20.30;36.30;;;;;;6092162;23;20025;-64
2022/12/19 01:08:10;;;;;;;4.32;3.92;;;20.30;36.30;;;;;;6091072;23;20018;-64
2022/12/19 01:10:35;;;;;;;4.55;4.07;;;20.30;36.30;;;;;;6119173;23;20029;-65
2022/12/19 01:13:01;;;;;;;4.57;4.15;;;20.30;36.30;;;;;;6091500;23;20014;-65
2022/12/19 01:15:26;;;;;;;4.78;4.38;;;20.30;36.20;;;;;;6118019;23;20076;-65
2022/12/19 01:17:52;;;;;;;4.88;4.35;;;20.30;36.30;;;;;;6091779;23;20103;-64
2022/12/19 01:20:20;;;;;;;4.90;4.40;;;20.30;36.20;;;;;;6118102;23;20022;-65
2022/12/19 01:22:46;;;;;;;4.55;4.15;;;20.20;36.10;;;;;;6091150;23;20476;-65
2022/12/19 01:25:13;;;;;;;4.50;4.10;;;20.20;36.10;;;;;;6118692;23;20539;-64
2022/12/19 01:27:39;;;;;;;4.72;4.20;;;20.20;36.00;;;;;;6091188;23;20053;-65
2022/12/19 01:30:06;;;;;;;4.50;4.10;;;20.20;36.00;;;;;;6117287;23;20014;-64
2022/12/19 01:32:34;;;;;;;4.43;3.90;;;20.20;36.00;;;;;;6116972;23;20021;-65
2022/12/19 01:35:01;;;;;;;4.25;3.90;;;20.20;36.00;;;;;;6117778;23;20062;-64
2022/12/19 01:37:26;;;;;;;4.30;3.90;;;20.20;36.00;;;;;;6091761;23;20519;-65
2022/12/19 01:39:52;;;;;;;5.15;4.65;;;20.20;36.10;;;;;;6067851;23;20089;-64
2022/12/19 01:42:20;;;;;;;4.25;3.85;;;20.10;35.90;;;;;;6117359;23;20036;-64
2022/12/19 01:45:07;;;;;;;4.90;4.40;;;20.10;36.00;;;;;;6118000;23;20006;-66
2022/12/19 01:47:55;;;;;;;4.90;4.40;;;20.10;35.90;;;;;;6090852;23;20060;-64
2022/12/19 01:50:38;;;;;;;4.65;4.25;;;20.10;35.90;;;;;;6118276;23;20013;-65
2022/12/19 01:53:05;;;;;;;4.95;4.40;;;20.10;35.90;;;;;;6117449;23;20098;-64
2022/12/19 01:55:32;;;;;;;4.85;4.38;;;20.10;35.90;;;;;;6115574;23;20010;-65
2022/12/19 01:58:00;;;;;;;4.50;4.10;;;20.10;35.90;;;;;;6065965;23;20335;-64
2022/12/19 02:00:25;;;;;;;4.43;4.03;;;20.10;35.90;;;;;;6116096;23;20045;-64
2022/12/19 02:03:12;;;;;;;4.00;3.70;;;20.10;35.90;;;;;;6087749;23;20017;-64
2022/12/19 02:05:38;;;;;;;4.30;3.90;;;20.10;35.80;;;;;;6116226;23;20018;-65
2022/12/19 02:08:05;;;;;;;4.95;4.43;;;20.10;35.90;;;;;;6091554;23;20381;-64
2022/12/19 02:10:30;;;;;;;4.55;4.15;;;20.10;35.80;;;;;;6117820;23;20010;-64
2022/12/19 02:12:56;;;;;;;4.93;4.43;;;20.00;35.80;;;;;;6090488;23;20423;-64
2022/12/19 02:15:23;;;;;;;4.57;4.18;;;20.00;35.80;;;;;;6115537;23;20450;-64
2022/12/19 02:18:22;;;;;;;4.43;3.95;;;20.00;35.80;;;;;;6117618;23;20014;-64
2022/12/19 02:21:03;;;;;;;4.45;4.05;;;20.00;35.80;;;;;;6117174;23;20853;-64
2022/12/19 02:23:41;;;;;;;4.65;4.25;;;20.00;35.80;;;;;;6116811;23;20382;-64
2022/12/19 02:26:34;;;;;;;5.15;4.65;;;20.00;35.80;;;;;;6117294;23;20523;-64
2022/12/19 02:29:15;;;;;;;4.90;4.47;;;19.90;35.80;;;;;;6119433;23;20085;-65
2022/12/19 02:31:50;;;;;;;4.32;3.92;;;19.90;35.80;;;;;;6068788;23;20549;-64
2022/12/19 02:34:40;;;;;;;4.50;4.10;;;19.90;35.80;;;;;;6119350;23;20036;-64
2022/12/19 02:37:26;;;;;;;4.47;4.07;;;19.90;35.80;;;;;;6117290;23;20048;-64
2022/12/19 02:39:55;;;;;;;4.30;3.90;;;19.90;35.80;;;;;;6094245;23;20010;-64
2022/12/19 02:42:30;;;;;;;4.75;4.35;;;19.80;35.80;;;;;;6091984;23;20021;-64
2022/12/19 02:44:57;;;;;;;4.50;4.10;;;19.80;35.80;;;;;;6094054;23;20010;-63
2022/12/19 02:47:22;;;;;;;4.00;3.67;;;19.90;35.80;;;;;;6092501;23;20018;-64
2022/12/19 02:49:48;;;;;;;4.38;3.97;;;19.80;35.80;;;;;;6119616;23;20010;-64
2022/12/19 02:52:20;;;;;;;4.30;3.90;;;19.80;35.80;;;;;;6093391;23;20406;-64
2022/12/19 02:54:49;;;;;;;4.20;3.80;;;19.80;35.70;;;;;;6120260;23;20022;-63
2022/12/19 02:57:41;;;;;;;4.13;3.63;;;19.80;35.80;;;;;;6091155;23;20387;-63
2022/12/19 03:00:07;;;;;;;4.57;4.18;;;19.80;35.80;;;;;;6116984;23;20389;-63
2022/12/19 03:02:32;;;;;;;4.20;3.80;;;19.70;35.80;;;;;;6115015;23;20108;-63
2022/12/19 03:05:09;;;;;;;4.03;3.72;;;19.70;35.80;;;;;;6067112;23;20014;-63
2022/12/19 03:08:00;;;;;;;4.60;4.20;;;19.70;35.80;;;;;;6116495;23;20466;-64
2022/12/19 03:10:35;;;;;;;;;;;19.70;35.80;;;;;;6091862;23;20006;-63
2022/12/19 03:13:06;;;;;;;4.78;4.28;;;19.70;35.80;;;;;;6091357;23;20325;-64
2022/12/19 03:15:33;;;;;;;4.28;3.85;;;19.60;35.90;;;;;;6091613;23;20013;-64
2022/12/19 03:18:00;;;;;;;4.65;4.25;;;19.60;35.80;;;;;;6066645;23;20020;-63
2022/12/19 03:20:34;;;;;;;4.88;4.30;;;19.60;35.90;;;;;;6091322;23;20096;-63
2022/12/19 03:23:00;;;;;;;4.80;4.30;;;19.60;35.80;;;;;;6090728;23;20049;-63
2022/12/19 03:25:29;;;;;;;4.60;4.20;;;19.60;35.90;;;;;;6117410;23;20014;-63
2022/12/19 03:28:00;;;;;;;4.60;4.20;;;19.60;35.90;;;;;;6117178;23;20021;-64
2022/12/19 03:30:27;;;;;;;;;;;19.60;35.80;;;;;;6090708;23;20014;-64
2022/12/19 03:32:54;;;;;;;5.45;4.03;;;19.60;35.90;;;;;;6091247;23;19919;-65
2022/12/19 03:35:24;;;;;;;4.35;3.95;;;19.60;36.00;;;;;;6116883;23;20148;-64
2022/12/19 03:37:52;;;;;;;4.57;4.18;;;19.60;36.00;;;;;;6091182;23;20351;-63
2022/12/19 03:40:21;;;;;;;4.63;4.22;;;19.50;36.00;;;;;;6090463;23;20017;-63
2022/12/19 03:43:09;;;;;;;3.95;3.60;;;19.50;36.00;;;;;;6091467;23;20454;-63
2022/12/19 03:45:35;;;;;;;3.83;3.53;;;19.50;36.00;;;;;;6116055;23;20070;-64
2022/12/19 03:48:08;;;;;;;4.88;4.40;;;19.50;36.00;;;;;;6116314;23;20382;-64
2022/12/19 03:50:47;;;;;;;4.03;3.63;;;19.50;36.00;;;;;;6091444;23;20018;-65
2022/12/19 03:53:50;;;;;;;4.30;3.90;;;19.50;36.00;;;;;;6118007;23;20129;-64
2022/12/19 03:56:23;;;;;;;4.22;3.85;;;19.50;36.00;;;;;;6089623;23;20319;-62
2022/12/19 03:58:57;;;;;;;4.70;4.20;;;19.40;36.00;;;;;;6068411;23;20113;-62
2022/12/19 04:01:26;;;;;;;4.40;4.00;;;19.40;36.00;;;;;;6090459;23;20032;-65
2022/12/19 04:03:52;;;;;;;4.50;4.10;;;19.40;36.10;;;;;;6117095;23;20014;-64
2022/12/19 04:06:18;;;;;;;4.75;4.25;;;19.40;36.00;;;;;;6117215;23;20013;-64
2022/12/19 04:08:45;;;;;;;4.75;4.35;;;19.40;36.00;;;;;;6117416;23;20098;-63
2022/12/19 04:11:18;;;;;;;4.07;3.67;;;19.40;36.10;;;;;;6090215;23;20053;-63
2022/12/19 04:13:51;;;;;;;4.93;4.43;;;19.40;36.00;;;;;;6118056;23;20687;-64
2022/12/19 04:17:10;;;;;;;4.80;4.40;;;19.40;36.10;;;;;;6090131;23;20014;-64
2022/12/19 04:19:43;;;;;;;4.78;4.38;;;19.40;36.00;;;;;;6116464;23;20022;-63
2022/12/19 04:22:24;;;;;;;4.35;3.95;;;19.30;36.10;;;;;;6089823;23;20105;-63
2022/12/19 04:24:51;;;;;;;4.60;4.20;;;19.30;36.10;;;;;;6115889;23;20120;-63
2022/12/19 04:27:19;;;;;;;4.70;4.30;;;19.30;36.10;;;;;;6116672;23;20025;-63
2022/12/19 04:29:45;;;;;;;4.55;4.15;;;19.30;36.20;;;;;;6090749;23;20100;-64
2022/12/19 04:32:12;;;;;;;4.18;3.83;;;19.30;36.20;;;;;;6090747;23;20022;-63
2022/12/19 04:34:39;;;;;;;4.75;4.30;;;19.30;36.10;;;;;;6115930;23;20109;-63
2022/12/19 04:37:05;;;;;;;4.25;3.85;;;19.30;36.20;;;;;;6116222;23;20009;-63
2022/12/19 04:39:31;;;;;;;4.40;4.00;;;19.20;36.10;;;;;;6117140;23;20018;-63
2022/12/19 04:41:57;;;;;;;5.10;4.35;;;19.30;36.20;;;;;;6089302;23;20037;-64
2022/12/19 04:44:23;;;;;;;4.25;3.85;;;19.20;36.10;;;;;;6116863;23;20437;-64
2022/12/19 04:46:49;;;;;;;4.18;3.78;;;19.30;37.00;;;;;;6115929;23;20042;-63
2022/12/19 04:49:14;;;;;;;5.82;4.25;;;19.30;36.20;;;;;;6089752;23;20072;-64
2022/12/19 04:51:40;;;;;;;4.28;3.88;;;19.20;36.20;;;;;;6066443;23;20018;-65
2022/12/19 04:54:06;;;;;;;4.50;4.10;;;19.20;36.20;;;;;;6116116;23;20025;-65
2022/12/19 04:56:31;;;;;;;4.70;4.20;;;19.20;36.20;;;;;;6089364;23;20036;-63
2022/12/19 04:58:58;;;;;;;4.20;3.80;;;19.20;36.30;;;;;;6115438;23;20093;-63
2022/12/19 05:01:24;;;;;;;3.97;3.60;;;19.20;36.30;;;;;;6115308;23;20041;-63
2022/12/19 05:03:50;;;;;;;4.47;4.13;;;19.20;36.30;;;;;;6116516;23;20022;-63
2022/12/19 05:06:17;;;;;;;4.53;4.13;;;19.20;36.30;;;;;;6089420;23;20010;-64
2022/12/19 05:08:43;;;;;;;4.57;4.18;;;19.10;36.40;;;;;;6089570;23;20052;-63
2022/12/19 05:11:11;;;;;;;4.22;3.85;;;19.10;36.30;;;;;;6089166;23;20089;-63
2022/12/19 05:13:36;;;;;;;4.32;3.92;;;19.10;36.40;;;;;;6088971;23;20018;-63
2022/12/19 05:16:06;;;;;;;4.20;3.80;;;19.10;36.40;;;;;;6089298;23;20025;-63
2022/12/19 05:18:32;;;;;;;4.32;3.92;;;19.10;36.40;;;;;;6090149;23;20014;-63
2022/12/19 05:20:58;;;;;;;4.70;4.30;;;19.10;36.40;;;;;;6115296;23;20073;-64
2022/12/19 05:23:24;;;;;;;4.30;3.90;;;19.10;36.40;;;;;;6090514;23;20740;-63
2022/12/19 05:25:50;;;;;;;4.05;3.65;;;19.10;36.40;;;;;;6089807;23;20053;-63
2022/12/19 05:28:17;;;;;;;4.22;3.90;;;19.10;36.50;;;;;;6089978;23;20405;-63
2022/12/19 05:30:44;;;;;;;4.47;3.85;;;19.10;36.50;;;;;;6088994;23;20022;-63
2022/12/19 05:33:10;;;;;;;3.92;3.63;;;19.10;36.50;;;;;;6089218;23;20092;-65
2022/12/19 05:35:36;;;;;;;4.18;3.78;;;19.00;36.50;;;;;;6115312;23;20430;-63
2022/12/19 05:38:02;;;;;;;3.72;3.42;;;19.00;36.50;;;;;;6115181;23;20021;-62
2022/12/19 05:40:27;;;;;;;4.35;3.95;;;19.00;36.50;;;;;;6089688;23;20014;-64
2022/12/19 05:42:53;;;;;;;4.38;3.95;;;19.00;36.50;;;;;;6115759;23;20037;-63
2022/12/19 05:45:19;;;;;;;3.95;3.63;;;19.00;36.50;;;;;;6115834;23;20104;-63
2022/12/19 05:47:45;;;;;;;3.95;3.63;;;19.00;36.50;;;;;;6088929;23;20503;-65
2022/12/19 05:50:15;;;;;;;3.63;3.33;;;19.00;36.60;;;;;;6116233;23;20442;-63
2022/12/19 05:52:41;;;;;;;4.38;3.67;;;19.00;36.60;;;;;;6116359;23;20021;-63
2022/12/19 05:55:08;;;;;;;3.83;3.50;;;19.00;36.60;;;;;;6115397;23;20033;-63
2022/12/19 05:57:34;;;;;;;3.72;3.40;;;19.00;36.70;;;;;;6115230;23;20029;-63
2022/12/19 06:00:00;;;;;;;3.90;3.50;;;19.00;36.70;;;;;;6115037;23;20015;-63
2022/12/19 06:02:26;;;;;;;3.30;3.00;;;18.90;36.60;;;;;;6115773;23;20018;-63
2022/12/19 06:04:52;;;;;;;3.67;3.38;;;18.90;36.60;;;;;;6092830;23;20022;-63
2022/12/19 06:07:18;;;;;;;3.60;3.30;;;18.90;36.70;;;;;;6116917;23;20326;-63
2022/12/19 06:09:43;;;;;;;3.72;3.30;;;18.90;36.70;;;;;;6091497;23;20018;-63
2022/12/19 06:12:09;;;;;;;3.67;3.38;;;18.90;36.70;;;;;;6117572;23;20367;-64
2022/12/19 06:14:34;;;;;;;3.50;3.20;;;18.90;36.70;;;;;;6114818;23;20018;-63
2022/12/19 06:17:00;;;;;;;3.40;3.10;;;18.90;36.80;;;;;;6089010;23;20018;-64
2022/12/19 06:19:26;;;;;;;3.30;3.00;;;18.90;36.90;;;;;;6117599;23;20100;-63
2022/12/19 06:21:52;;;;;;;4.05;3.35;;;18.90;36.90;;;;;;6116971;23;20072;-63
2022/12/19 06:24:17;;;;;;;5.18;3.55;;;18.90;36.90;;;;;;6067238;23;20323;-64
2022/12/19 06:26:44;;;;;;;2.92;2.70;;;18.80;36.90;;;;;;6066403;23;20067;-66
2022/12/19 06:29:09;;;;;;;10.75;3.63;;;18.90;36.90;;;;;;6118679;23;20525;-64
2022/12/19 06:31:35;;;;;;;19.40;3.75;;;18.90;37.20;;;;;;6090692;23;20041;-65
2022/12/19 06:34:01;;;;;;;7.20;3.50;;;19.10;37.20;;;;;;6087801;23;21002;-64
2022/12/19 06:36:29;;;;;;;8.60;2.88;;;19.60;36.80;;;;;;6066164;23;20018;-65
2022/12/19 06:38:59;;;;;;;4.20;2.20;;;20.30;36.00;;;;;;6067809;23;20024;-65
2022/12/19 06:44:12;;;;;;;2.55;2.35;;;21.40;34.70;;;;;;6092411;23;20018;-65
2022/12/19 06:46:38;;;;;;;4.55;2.28;;;21.60;34.10;;;;;;6091306;23;20036;-65
2022/12/19 06:49:05;;;;;;;4.55;2.38;;;21.70;34.20;;;;;;6067889;23;20696;-65
2022/12/19 06:51:31;;;;;;;8.13;2.30;;;21.60;34.20;;;;;;6117204;23;20021;-65
2022/12/19 06:53:57;;;;;;;3.35;2.38;;;21.60;34.40;;;;;;6118145;23;20018;-64
2022/12/19 06:56:23;;;;;;;3.20;2.38;;;21.50;34.50;;;;;;6091162;23;20576;-65
2022/12/19 06:58:49;;;;;;;4.13;2.35;;;21.50;34.60;;;;;;6117196;23;20022;-64
2022/12/19 07:01:47;;;;;;;4.00;2.42;;;21.50;34.80;;;;;;6089536;23;20046;-64
2022/12/19 07:04:17;;;;;;;2.70;2.50;;;21.40;35.00;;;;;;6116815;23;20047;-66
2022/12/19 07:06:42;;;;;;;6.10;2.65;;;21.40;35.20;;;;;;6068176;23;20010;-67
2022/12/19 07:09:08;;;;;;;3.17;2.15;;;21.40;35.20;;;;;;6091099;23;20358;-66
2022/12/19 07:11:34;;;;;;;3.78;2.30;;;21.40;35.30;;;;;;6067241;23;20108;-65
2022/12/19 07:13:59;;;;;;;3.80;2.15;;;21.40;35.30;;;;;;6091000;23;20077;-64
2022/12/19 07:16:26;;;;;;;2.30;2.10;;;21.40;35.30;;;;;;6090475;23;20021;-66
2022/12/19 07:18:52;;;;;;;2.70;2.13;;;21.50;35.20;;;;;;6090899;23;20374;-67
2022/12/19 07:21:17;;;;;;;3.33;2.13;;;21.80;34.90;;;;;;6091045;23;20022;-67
2022/12/19 07:23:43;;;;;;;3.63;2.33;;;21.90;34.70;;;;;;6091453;23;20018;-65
2022/12/19 07:26:09;;;;;;;3.72;2.35;;;22.10;34.40;;;;;;6116192;23;20017;-63
2022/12/19 07:28:36;;;;;;;1.95;1.77;;;22.30;34.30;;;;;;6064178;23;20018;-64
2022/12/19 07:31:02;;;;;;;3.13;2.13;;;22.60;34.10;;;;;;6091562;23;20532;-66
2022/12/19 07:33:28;;;;;;;4.03;2.10;;;22.70;33.70;;;;;;6088625;23;20018;-65
2022/12/19 07:35:54;;;;;;;3.63;2.30;;;22.80;33.70;;;;;;6084544;23;20490;-65
2022/12/19 07:38:19;;;;;;;2.17;1.98;;;22.90;33.70;;;;;;6085832;23;20065;-66
2022/12/19 07:40:45;;;;;;;4.18;2.20;;;23.00;33.60;;;;;;6084554;23;20033;-65
2022/12/19 07:43:11;;;;;;;5.47;2.30;;;23.20;33.50;;;;;;6116519;23;20065;-65
2022/12/19 07:45:37;;;;;;;3.90;2.30;;;23.30;33.40;;;;;;6090610;23;20020;-66
2022/12/19 07:48:04;;;;;;;4.47;2.30;;;23.30;33.40;;;;;;6055289;23;20022;-65
2022/12/19 07:50:30;;;;;;;5.03;2.22;;;23.30;33.40;;;;;;6114424;23;20061;-65
2022/12/19 07:52:57;;;;;;;2.45;1.80;;;23.40;33.50;;;;;;6114754;23;20458;-66
2022/12/19 07:55:23;;;;;;;4.55;1.80;;;23.40;33.60;;;;;;6089197;23;20890;-65
2022/12/19 07:57:49;;;;;;;3.72;1.80;;;23.40;33.50;;;;;;6089220;23;20466;-66
2022/12/19 08:00:15;;;;;;;3.75;1.80;;;23.50;33.50;;;;;;6066169;23;20010;-66
2022/12/19 08:02:41;;;;;;;3.90;1.60;;;23.60;33.40;;;;;;6090068;23;20403;-66
2022/12/19 08:05:07;;;;;;;2.35;2.05;;;23.60;33.30;;;;;;6090174;23;20074;-65
2022/12/19 08:07:33;;;;;;;2.65;1.60;;;23.70;33.80;;;;;;6089497;23;20493;-66
2022/12/19 08:09:59;;;;;;;2.90;1.67;;;23.80;33.10;;;;;;6089699;23;20017;-66
2022/12/19 08:12:25;;;;;;;1.95;1.67;;;23.80;33.10;;;;;;6065274;23;20018;-67
2022/12/19 08:14:51;;;;;;;2.85;1.63;;;23.90;33.10;;;;;;6065831;23;20022;-66
2022/12/19 08:17:17;;;;;;;1.50;1.40;;;23.90;32.90;;;;;;6089492;23;20010;-66
2022/12/19 08:19:43;;;;;;;1.50;1.40;;;24.00;33.60;;;;;;6066314;23;20153;-66
2022/12/19 08:22:08;;;;;;;1.60;1.35;;;24.00;32.80;;;;;;6064769;23;20014;-66
2022/12/19 08:24:34;;;;;;;2.42;1.33;;;24.10;32.70;;;;;;6089199;23;20454;-66
2022/12/19 08:27:00;;;;;;;1.40;1.30;;;24.10;32.60;;;;;;6064580;23;20439;-66
2022/12/19 08:29:25;;;;;;;2.30;1.52;;;24.20;32.60;;;;;;6065861;23;20014;-66
2022/12/19 08:31:51;;;;;;;2.33;1.50;;;24.20;32.50;;;;;;6089743;23;20026;-66
2022/12/19 08:34:17;;;;;;;1.27;1.10;;;24.20;32.50;;;;;;6089120;23;20073;-66
2022/12/19 08:36:42;;;;;;;3.10;1.30;;;24.20;32.40;;;;;;6064669;23;20022;-66
2022/12/19 08:39:08;;;;;;;1.35;1.25;;;24.30;32.40;;;;;;6088492;23;20028;-67
2022/12/19 08:41:35;;;;;;;2.13;1.40;;;24.20;32.40;;;;;;6115937;23;20823;-66
2022/12/19 08:44:01;;;;;;;2.63;1.30;;;24.30;33.20;;;;;;6078596;23;20382;-65
2022/12/19 08:46:26;;;;;;;2.42;1.48;;;24.30;32.50;;;;;;6089405;23;20014;-65
2022/12/19 08:48:52;;;;;;;1.30;1.20;;;24.40;32.60;;;;;;6088942;23;20041;-66
2022/12/19 08:51:19;;;;;;;1.98;1.23;;;24.40;32.70;;;;;;6087803;23;20148;-65
2022/12/19 08:53:46;;;;;;;1.38;1.27;;;24.50;32.80;;;;;;6087902;23;20355;-66
2022/12/19 08:56:17;;;;;;;1.30;1.20;;;24.50;33.00;;;;;;6088614;23;20133;-66
2022/12/19 08:58:44;;;;;;;1.10;1.00;;;24.50;32.90;;;;;;6065391;23;20028;-66
2022/12/19 09:01:13;;;;;;;1.40;1.30;;;24.40;32.90;;;;;;6064055;23;20093;-66
2022/12/19 09:03:39;;;;;;;3.85;1.00;;;24.50;33.00;;;;;;6088635;23;20021;-66
2022/12/19 09:06:07;;;;;;;2.08;1.30;;;24.40;33.00;;;;;;6087367;23;20742;-66
2022/12/19 09:08:34;;;;;;;1.20;1.10;;;24.50;33.10;;;;;;6087986;23;20205;-66
2022/12/19 09:11:07;;;;;;;1.77;1.05;;;24.50;33.10;;;;;;6064626;23;20017;-67
2022/12/19 09:13:35;;;;;;;2.42;1.15;;;24.50;33.10;;;;;;6112971;23;20057;-66
2022/12/19 09:16:19;;;;;;;3.65;1.20;;;24.60;33.80;;;;;;6062217;23;20018;-65
2022/12/19 09:18:47;;;;;;;2.75;1.45;;;24.60;33.10;;;;;;6064253;23;20497;-66
2022/12/19 09:21:12;;;;;;;1.70;1.30;;;24.40;33.20;;;;;;6088914;23;20093;-65
2022/12/19 09:23:39;;;;;;;1.80;1.15;;;24.30;33.60;;;;;;6088147;23;20670;-64
2022/12/19 09:26:08;;;;;;;4.25;1.30;;;24.00;33.90;;;;;;6113140;23;20010;-66
2022/12/19 09:28:36;;;;;;;3.13;1.50;;;23.80;34.20;;;;;;6065026;23;20441;-66
2022/12/19 09:31:04;;;;;;;3.10;1.40;;;23.60;34.50;;;;;;6064961;23;20326;-67
2022/12/19 09:33:32;;;;;;;2.05;1.38;;;23.50;34.80;;;;;;6087321;23;20017;-66
2022/12/19 09:35:59;;;;;;;4.68;1.42;;;23.30;35.00;;;;;;6113395;23;20462;-66
2022/12/19 09:38:26;;;;;;;1.77;1.40;;;23.30;35.20;;;;;;6087415;23;20018;-66
2022/12/19 09:41:05;;;;;;;2.35;1.40;;;23.20;35.40;;;;;;6087830;23;20435;-65
2022/12/19 09:43:54;;;;;;;3.80;1.33;;;23.10;35.60;;;;;;6114543;23;20006;-65
2022/12/19 09:46:58;;;;;;;3.30;1.30;;;23.10;35.60;;;;;;6088356;23;20013;-66
2022/12/19 09:49:33;;;;;;;2.15;1.40;;;23.10;35.70;;;;;;6062600;23;20026;-65
2022/12/19 09:52:05;;;;;;;4.60;1.30;;;23.00;35.80;;;;;;6111793;23;20024;-66
2022/12/19 09:55:11;;;;;;;3.80;1.20;;;23.00;35.70;;;;;;6113619;23;20271;-64
2022/12/19 09:57:48;;;;;;;3.28;1.20;;;23.00;35.80;;;;;;6088003;23;20018;-63
2022/12/19 10:00:20;;;;;;;1.30;1.13;;;23.00;35.90;;;;;;6065412;23;20022;-64
2022/12/19 10:03:15;;;;;;;1.63;1.23;;;22.90;35.90;;;;;;6064075;23;20107;-65
2022/12/19 10:06:05;;;;;;;3.45;1.23;;;22.90;35.90;;;;;;6086992;23;20386;-63
2022/12/19 10:08:39;;;;;;;1.13;1.10;;;22.90;36.20;;;;;;6064421;23;20017;-64
2022/12/19 10:11:23;;;;;;;1.60;1.10;;;22.90;36.20;;;;;;6114959;23;20041;-64
2022/12/19 10:14:12;;;;;;;2.92;1.35;;;22.90;36.20;;;;;;6116607;23;20080;-63
2022/12/19 10:16:59;;;;;;;4.18;1.15;;;22.90;36.30;;;;;;6091805;23;20757;-64
2022/12/19 10:19:55;;;;;;;4.10;1.00;;;22.90;36.40;;;;;;6066151;23;20101;-64
2022/12/19 10:22:36;;;;;;;2.33;1.20;;;22.90;36.40;;;;;;6090071;23;20017;-64
2022/12/19 10:25:14;;;;;;;2.42;1.10;;;22.90;36.30;;;;;;6090118;23;20049;-64
2022/12/19 10:28:03;;;;;;;2.65;1.15;;;22.90;36.40;;;;;;6090168;23;20411;-66
2022/12/19 10:30:37;;;;;;;2.35;1.05;;;22.90;36.30;;;;;;6089914;23;20022;-64
2022/12/19 10:33:21;;;;;;;1.20;1.10;;;23.00;36.30;;;;;;6089960;23;20018;-64
2022/12/19 10:35:53;;;;;;;2.92;1.10;;;23.00;36.40;;;;;;6087778;23;20021;-65
2022/12/19 10:38:35;;;;;;;2.47;1.00;;;22.90;36.30;;;;;;6065340;23;20097;-64
2022/12/19 10:41:08;;;;;;;1.20;1.00;;;22.90;36.30;;;;;;6113967;23;20049;-64
2022/12/19 10:43:46;;;;;;;1.67;1.10;;;22.90;36.30;;;;;;6088942;23;20018;-64
2022/12/19 10:46:33;;;;;;;3.53;1.00;;;22.90;36.30;;;;;;6113455;23;20018;-64
2022/12/19 10:48:59;;;;;;;1.30;0.93;;;22.90;36.00;;;;;;6088082;23;20014;-65
2022/12/19 10:51:28;;;;;;;2.53;1.00;;;22.90;36.00;;;;;;6115070;23;20017;-64
2022/12/19 10:54:00;;;;;;;1.38;1.00;;;22.90;36.00;;;;;;6091169;23;20564;-65
2022/12/19 10:56:28;;;;;;;2.30;1.02;;;22.90;36.00;;;;;;6091216;23;20100;-64
2022/12/19 10:58:58;;;;;;;5.25;1.30;;;23.00;36.00;;;;;;6115703;23;20021;-63
2022/12/19 11:01:39;;;;;;;1.25;1.08;;;22.90;36.80;;;;;;6116620;23;20029;-64
2022/12/19 11:04:27;;;;;;;;;;;22.90;35.90;;;;;;6115709;23;20041;-64
2022/12/19 11:07:02;;;;;;;1.85;0.85;;;22.90;36.00;;;;;;6066343;23;20000;-65
2022/12/19 11:09:35;;;;;;;2.17;1.20;;;23.00;36.10;;;;;;6091246;23;20014;-64
2022/12/19 11:12:07;;;;;;;3.35;1.02;;;23.00;36.10;;;;;;6116443;23;20018;-63
2022/12/19 11:14:35;;;;;;;2.05;1.20;;;23.00;36.10;;;;;;6090682;23;20064;-64
2022/12/19 11:17:01;;;;;;;2.60;0.98;;;23.00;36.50;;;;;;6089628;23;20407;-64
2022/12/19 11:19:38;;;;;;;2.17;1.10;;;23.00;36.10;;;;;;6091007;23;20033;-64
2022/12/19 11:22:18;;;;;;;1.48;1.00;;;23.00;36.10;;;;;;6115043;23;20053;-64
2022/12/19 11:24:48;;;;;;;1.63;1.08;;;23.00;36.10;;;;;;6090555;23;20017;-64
2022/12/19 11:27:41;;;;;;;1.40;1.30;;;23.00;36.10;;;;;;6089516;23;20045;-64
2022/12/19 11:30:29;;;;;;;1.30;1.02;;;23.00;36.10;;;;;;6110977;23;20018;-63
2022/12/19 11:33:15;;;;;;;1.10;1.00;;;23.00;36.00;;;;;;6089352;23;20022;-64
2022/12/19 11:35:57;;;;;;;1.15;0.85;;;23.00;36.10;;;;;;6089669;23;20021;-64
2022/12/19 11:38:47;;;;;;;2.25;1.17;;;23.00;36.10;;;;;;6115510;23;20017;-65
2022/12/19 11:41:39;;;;;;;1.00;0.90;;;23.00;36.10;;;;;;6089412;23;20022;-65
2022/12/19 11:44:39;;;;;;;1.15;1.05;;;23.00;36.10;;;;;;6116121;23;20013;-64
2022/12/19 11:47:38;;;;;;;1.50;1.00;;;23.00;36.10;;;;;;6115964;23;20017;-64
2022/12/19 11:50:28;;;;;;;1.50;0.90;;;23.00;36.10;;;;;;6115647;23;20065;-64
2022/12/19 11:53:18;;;;;;;1.67;1.10;;;22.90;36.30;;;;;;6090290;23;20053;-63
2022/12/19 11:55:53;;;;;;;1.65;0.90;;;23.00;36.50;;;;;;6087747;23;20021;-64
2022/12/19 11:58:21;;;;;;;1.85;0.80;;;22.90;36.50;;;;;;6115287;23;20072;-64
2022/12/19 12:01:21;;;;;;;1.92;0.95;;;23.00;36.60;;;;;;6064936;23;20014;-64
2022/12/19 12:04:04;;;;;;;1.88;1.10;;;23.00;36.60;;;;;;6089672;23;20022;-64
2022/12/19 12:06:43;;;;;;;1.17;1.08;;;23.00;36.60;;;;;;6066105;23;20028;-64
2022/12/19 12:09:25;;;;;;;0.95;0.95;;;23.00;36.60;;;;;;6089699;23;20065;-64
2022/12/19 12:12:38;;;;;;;1.10;1.00;;;23.00;36.60;;;;;;6088677;23;20072;-64
2022/12/19 12:15:32;;;;;;;2.25;1.02;;;22.90;36.60;;;;;;5968842;24;20059;-63
2022/12/19 12:18:31;;;;;;;2.35;0.80;;;22.90;36.70;;;;;;5968562;24;20039;-64
2022/12/19 12:21:27;;;;;;;2.88;1.23;;;22.90;36.70;;;;;;6105243;23;20026;-64
2022/12/19 12:24:20;;;;;;;1.42;0.98;;;22.90;36.70;;;;;;6040739;23;20020;-64
2022/12/19 12:27:00;;;;;;;1.20;1.10;;;22.90;36.70;;;;;;6088704;23;20619;-64
2022/12/19 12:29:50;;;;;;;2.08;1.05;;;22.90;36.60;;;;;;6114095;23;20024;-64
2022/12/19 12:32:24;;;;;;;2.85;1.10;;;22.90;36.60;;;;;;6030357;23;20026;-64
2022/12/19 12:35:18;;;;;;;1.15;1.05;;;22.90;36.50;;;;;;6089844;23;20022;-64
2022/12/19 12:37:57;;;;;;;1.13;1.02;;;22.90;36.40;;;;;;6089772;23;20018;-61
2022/12/19 12:41:00;;;;;;;1.10;1.00;;;22.90;36.40;;;;;;6090028;23;20057;-65
2022/12/19 12:43:48;;;;;;;0.93;0.85;;;23.00;36.40;;;;;;6114614;23;20053;-63
2022/12/19 12:46:19;;;;;;;1.00;1.00;;;23.00;36.40;;;;;;6090425;23;20029;-63
2022/12/19 12:48:47;;;;;;;1.38;0.90;;;22.90;36.30;;;;;;6117374;23;20018;-64
2022/12/19 12:51:14;;;;;;;1.77;1.20;;;22.90;36.30;;;;;;6090086;23;20020;-65
2022/12/19 12:53:44;;;;;;;1.00;0.90;;;22.90;37.30;;;;;;6089274;23;20018;-65
2022/12/19 12:56:15;;;;;;;1.87;1.10;;;22.90;36.30;;;;;;6089508;23;20018;-65
2022/12/19 12:59:02;;;;;;;1.20;1.10;;;22.90;36.20;;;;;;6066389;23;20020;-65
2022/12/19 13:01:27;;;;;;;1.75;1.15;;;22.90;36.30;;;;;;6089798;23;20018;-65
2022/12/19 13:04:23;;;;;;;0.85;0.82;;;22.90;36.30;;;;;;6090953;23;20022;-65
2022/12/19 13:06:48;;;;;;;1.10;1.10;;;22.90;36.20;;;;;;6101506;23;20025;-65
2022/12/19 13:09:26;;;;;;;1.13;1.02;;;22.90;36.20;;;;;;6090987;23;20022;-65
2022/12/19 13:14:48;;;;;;;0.85;0.85;;;23.00;36.30;;;;;;6090849;23;20026;-65
2022/12/19 13:17:14;;;;;;;1.30;1.20;;;22.90;36.20;;;;;;6066468;23;20182;-65
2022/12/19 13:19:56;;;;;;;1.15;1.05;;;22.90;36.20;;;;;;6091399;23;20096;-65